x

Lake Winnipeg Narrows (45145) Wave Buoy

11:00am - Wed 17th Sep 2014 All times are UTC.

  • Sig Wave height 1.0ft
  • Peak Period 2s
  • Wind
    11mph, 13mph gusts
  • Sea Temp 56°f
  • Air Temp 38°f
  • Sea Pressure 1019.8mb

More Historic Weather Station data

Upgrade to MSW Pro to gain access to the past 30 days of data for over 8000 Wavebouys and Weather Stations around the globe.

Join Pro

Comparision Forecast

View Surf forecast
   
Wed 09/17 11:00am 1ft 2s 11 13 mph 1019.8mb 56f 38f
10:00am 1ft 2s 11 16 mph 1019.6mb 56f 37f
9:00am 1.3ft 3s 13 18 mph 1019.2mb 56f 37f
8:00am 1.3ft 3s 13 18 mph 1018.8mb 56f 38f
7:00am 1.3ft 3s 16 20 mph 1018.3mb 56f 38f
6:00am 1.3ft 3s 18 22 mph 1017.9mb 56f 38f
5:00am 1.3ft 3s 16 20 mph 1017mb 56f 39f
4:00am 1.3ft 3s 16 18 mph 1017.1mb 56f 39f
3:00am 1.6ft 3s 18 22 mph 1017.1mb 57f 40f
2:00am 1.6ft 3s 20 25 mph 1016.5mb 57f 42f
1:00am 1.6ft 3s 20 25 mph 1016mb 57f 43f
12:00am 1.3ft 3s 18 22 mph 1015.9mb 57f 46f
Tue 09/16 11:00pm 1ft 2s 18 22 mph 1016.2mb 57f 47f
10:00pm 0.7ft 2s 13 18 mph 1016.6mb 57f 48f
9:00pm 0.7ft 2s 9 13 mph 1016.7mb 57f 48f
8:00pm 1ft 2s 9 13 mph 1017.1mb 57f 47f
7:00pm 1ft 2s 9 13 mph 1017.7mb 57f 47f
6:00pm 1ft 2s 9 13 mph 1018.1mb 57f 46f
5:00pm 1.3ft 3s 9 13 mph 1018.4mb 57f 45f
4:00pm 1.3ft 3s 11 16 mph 1018.5mb 57f 45f
3:00pm 1.3ft 3s 13 18 mph 1018.5mb 57f 44f
2:00pm 1.6ft 3s 18 20 mph 1017.8mb 57f 44f
1:00pm 1.6ft 3s 16 20 mph 1017.6mb 57f 44f
12:00pm 1.6ft 3s 16 18 mph 1017.2mb 57f 45f
11:00am 2ft 4s 13 20 mph 1016.5mb 57f 47f
10:00am 2ft 4s 16 20 mph 1015.7mb 57f 48f
9:00am 2ft 3s 18 22 mph 1014.8mb 58f 49f
8:00am 2ft 3s 22 27 mph 1014mb 58f 51f
7:00am 1ft 2s 22 27 mph 1013mb 58f 54f
6:00am 1ft 2s 13 18 mph 1011.9mb 58f 59f
5:00am 1.3ft 3s 11 16 mph 1011.9mb 58f 58f
4:00am 1.6ft 3s 16 18 mph 1011.5mb 58f 57f
3:00am 1.3ft 2s 18 22 mph 1011.6mb 58f 58f
2:00am 1ft 2s 16 18 mph 1012.2mb 58f 59f
1:00am 1ft 3s 11 13 mph 1012.9mb 58f 58f
12:00am 1ft 3s 11 13 mph 1013.5mb 58f 60f
Mon 09/15 11:00pm 1ft 3s 9 11 mph 1014.2mb 58f 60f
10:00pm 1.3ft 3s 11 13 mph 1014.4mb 58f 60f
9:00pm 1.3ft 3s 13 16 mph 1014.9mb 58f 61f
8:00pm 1ft 2s 13 18 mph 1015.4mb 59f 61f
7:00pm 0.7ft 2s 4
mph
1016mb 59f 59f
6:00pm 1ft 3s 9 11 mph 1016.5mb 58f 58f
5:00pm 1.3ft 3s 9 11 mph 1017mb 58f 56f
4:00pm 1.6ft 3s 13 16 mph 1017.3mb 58f 54f
3:00pm 1.6ft 3s 16 18 mph 1017.3mb 58f 53f
2:00pm 2ft 3s 18 22 mph 1017.3mb 58f 52f
1:00pm 2ft 3s 18 22 mph 1017.3mb 58f 52f
12:00pm 2ft 3s 18 22 mph 1017.2mb 58f 52f
11:00am 2ft 3s 20 22 mph 1017mb 58f 52f
10:00am 1.6ft 3s 20 27 mph 1016.9mb 58f 52f
9:00am 1.6ft 3s 18 22 mph 1017mb 58f 51f
8:00am 1.6ft 3s 18 22 mph 1017.6mb 58f 52f
7:00am 1.3ft 3s 18 22 mph 1018.1mb 58f 52f
6:00am 1.3ft 3s 18 20 mph 1018.4mb 58f 52f
5:00am 1ft 3s 13 16 mph 1018.6mb 58f 52f
4:00am 1ft 2s 13 16 mph 1018.7mb 58f 51f
3:00am 1ft 3s 13 16 mph 1018.9mb 58f 51f
2:00am 1.3ft 3s 11 13 mph 1019mb 58f 51f
1:00am 1.3ft 4s 11 16 mph 1018.8mb 58f 52f
12:00am 1.3ft 3s 11 13 mph 1018.9mb 58f 52f
Sun 09/14 11:00pm 2ft 3s 13 18 mph 1018.7mb 58f 52f
10:00pm 2ft 3s 18 22 mph 1018.6mb 59f 52f
9:00pm 1.6ft 3s 16 22 mph 1018.4mb 59f 52f
8:00pm 1.6ft 3s 16 20 mph 1018.4mb 59f 51f
7:00pm 1.6ft 3s 16 20 mph 1018.5mb 58f 50f
6:00pm 1.6ft 4s 16 18 mph 1018.7mb 58f 50f
5:00pm 1.6ft 3s 13 16 mph 1018.4mb 58f 49f
4:00pm 1.6ft 3s 16 18 mph 1018mb 58f 49f
3:00pm 1.3ft 3s 13 18 mph 1017.7mb 58f 47f
2:00pm 1ft 3s 13 18 mph 1017.3mb 58f 47f
1:00pm 1ft 2s 13 16 mph 1016.5mb 59f 49f
12:00pm 1ft 3s 11 13 mph 1016.2mb 58f 50f
11:00am 1ft 2s 13 16 mph 1015.8mb 58f 51f
10:00am 1ft 2s 11 13 mph 1015.3mb 58f 52f
9:00am 0.7ft 2s 13 16 mph 1015mb 58f 51f
8:00am 1ft 2s 9 11 mph 1014.8mb 59f 50f
7:00am 1.3ft 3s 13 16 mph 1014.6mb 59f 50f
6:00am 1.3ft 3s 18 20 mph 1014.2mb 59f 51f
5:00am 1ft 3s 18 20 mph 1014.4mb 59f 51f
4:00am 0.3ft 4s 18 20 mph 1014.5mb 60f 52f
3:00am 0.3ft 4s 7 9 mph 1014.2mb 60f 55f
2:00am 0.3ft 2s 9 13 mph 1014.4mb 59f 55f
1:00am 0.7ft 2s 7 11 mph 1015.1mb 59f 54f
12:00am 1ft 2s 13 16 mph 1014.5mb 59f 56f
Sat 09/13 11:00pm 1.3ft 2s 13 16 mph 1014.7mb 60f 56f
10:00pm 1.3ft 3s 13 16 mph 1014.6mb 60f 57f
9:00pm 1.3ft 2s 16 20 mph 1014.6mb 60f 57f
8:00pm 1.3ft 2s 11 16 mph 1014.6mb 60f 56f
7:00pm 1ft 2s 16 18 mph 1014.9mb 60f 55f
6:00pm 1ft 3s 11 13 mph 1015.4mb 60f 54f
5:00pm 1.6ft 3s 9 13 mph 1016mb 59f 52f
4:00pm 1.6ft 3s 16 18 mph 1016.4mb 59f 51f
3:00pm 1.6ft 3s 16 20 mph 1016.3mb 59f 51f
2:00pm 2ft 4s 18 22 mph 1016.4mb 59f 52f
1:00pm 2ft 4s 20 22 mph 1016.6mb 59f 52f